createdAt,value
2019-04-20T00:01:50.532Z,2.80
2019-04-20T00:04:25.015Z,2.97
2019-04-20T00:06:52.834Z,4.03
2019-04-20T00:09:24.633Z,4.00
2019-04-20T00:12:02.969Z,3.53
2019-04-20T00:14:26.108Z,3.37
2019-04-20T00:16:52.752Z,3.13
2019-04-20T00:19:28.583Z,3.70
2019-04-20T00:22:00.308Z,3.37
2019-04-20T00:24:33.909Z,2.90
2019-04-20T00:27:22.402Z,3.50
2019-04-20T00:29:49.891Z,3.43
2019-04-20T00:32:12.447Z,4.30
2019-04-20T00:34:36.483Z,3.70
2019-04-20T00:37:02.305Z,4.20
2019-04-20T00:39:31.986Z,3.70
2019-04-20T00:42:06.128Z,3.33
2019-04-20T00:44:35.931Z,4.13
2019-04-20T00:47:14.645Z,3.13
2019-04-20T00:49:45.683Z,4.13
2019-04-20T00:52:31.206Z,3.73
2019-04-20T00:54:33.276Z,4.00
2019-04-20T00:57:13.280Z,3.43
2019-04-20T00:59:55.221Z,4.73
2019-04-20T01:02:19.408Z,3.83
2019-04-20T01:04:53.803Z,3.70
2019-04-20T01:07:32.015Z,3.67
2019-04-20T01:09:58.309Z,3.27
2019-04-20T01:12:31.364Z,3.97
2019-04-20T01:15:02.710Z,3.80
2019-04-20T01:17:28.385Z,4.40
2019-04-20T01:19:57.105Z,3.77
2019-04-20T01:22:28.603Z,4.00
2019-04-20T01:25:00.294Z,3.97
2019-04-20T01:27:39.608Z,4.60
2019-04-20T01:30:08.331Z,3.50
2019-04-20T01:32:41.608Z,4.00
2019-04-20T01:35:10.024Z,4.60
2019-04-20T01:37:38.593Z,4.40
2019-04-20T01:40:03.002Z,4.10
2019-04-20T01:42:30.194Z,3.77
2019-04-20T01:45:00.164Z,3.87
2019-04-20T01:47:36.727Z,3.70
2019-04-20T01:50:03.576Z,4.67
2019-04-20T01:52:42.849Z,4.13
2019-04-20T01:55:32.942Z,3.87
2019-04-20T01:58:09.137Z,4.63
2019-04-20T02:00:37.285Z,4.27
2019-04-20T02:03:28.566Z,4.10
2019-04-20T02:06:00.215Z,4.70
2019-04-20T02:08:24.939Z,4.67
2019-04-20T02:10:57.652Z,4.77
2019-04-20T02:13:26.156Z,4.20
2019-04-20T02:15:58.916Z,3.67
2019-04-20T02:18:36.714Z,4.30
2019-04-20T02:21:18.393Z,4.53
2019-04-20T02:23:35.702Z,4.77
2019-04-20T02:25:56.673Z,4.43
2019-04-20T02:28:55.391Z,3.97
2019-04-20T02:31:32.865Z,3.57
2019-04-20T02:34:19.874Z,4.20
2019-04-20T02:37:00.200Z,4.03
2019-04-20T02:41:49.704Z,4.13
2019-04-20T02:49:29.182Z,4.43
2019-04-20T02:51:52.420Z,5.03
2019-04-20T02:54:18.946Z,3.40
2019-04-20T02:56:58.857Z,3.93
2019-04-20T02:59:48.685Z,3.80
2019-04-20T03:01:41.766Z,4.10
2019-04-20T03:03:57.636Z,4.60
2019-04-20T03:06:32.851Z,4.40
2019-04-20T03:09:17.262Z,4.00
2019-04-20T03:11:52.938Z,10.00
2019-04-20T03:14:10.901Z,7.40
2019-04-20T03:16:48.865Z,6.53
2019-04-20T03:19:11.780Z,6.50
2019-04-20T03:21:51.339Z,6.00
2019-04-20T03:24:19.071Z,5.30
2019-04-20T03:26:54.659Z,5.17
2019-04-20T03:29:45.717Z,5.13
2019-04-20T03:32:49.967Z,5.17
2019-04-20T03:37:27.923Z,5.17
2019-04-20T03:39:46.443Z,5.23
2019-04-20T03:42:00.485Z,4.33
2019-04-20T03:44:32.525Z,4.87
2019-04-20T03:47:05.217Z,4.60
2019-04-20T03:49:54.908Z,4.55
2019-04-20T03:52:27.672Z,5.03
2019-04-20T03:55:26.574Z,5.10
2019-04-20T03:58:22.335Z,4.70
2019-04-20T04:01:02.223Z,4.60
2019-04-20T04:03:47.194Z,4.50
2019-04-20T04:06:05.447Z,4.53
2019-04-20T04:08:30.341Z,3.70
2019-04-20T04:11:12.130Z,4.90
2019-04-20T04:13:23.411Z,5.15
2019-04-20T04:15:59.225Z,5.00
2019-04-20T04:18:31.155Z,5.25
2019-04-20T04:21:00.083Z,4.63
2019-04-20T04:23:40.937Z,5.10
2019-04-20T04:26:22.320Z,4.28
2019-04-20T04:28:41.089Z,4.35
2019-04-20T04:31:12.035Z,3.97
2019-04-20T04:33:55.787Z,4.37
2019-04-20T04:36:15.479Z,4.30
2019-04-20T04:38:51.345Z,4.95
2019-04-20T04:41:21.453Z,4.15
2019-04-20T04:43:44.126Z,4.30
2019-04-20T04:45:59.218Z,4.60
2019-04-20T04:48:35.078Z,4.87
2019-04-20T04:51:03.180Z,4.67
2019-04-20T04:53:41.738Z,4.28
2019-04-20T04:56:05.801Z,4.37
2019-04-20T04:58:30.150Z,4.40
2019-04-20T05:01:06.609Z,4.50
2019-04-20T05:03:48.661Z,4.80
2019-04-20T05:06:21.997Z,4.60
2019-04-20T05:08:43.840Z,4.90
2019-04-20T05:11:07.044Z,4.90
2019-04-20T05:13:45.040Z,4.40
2019-04-20T05:16:21.708Z,4.70
2019-04-20T05:18:57.863Z,5.10
2019-04-20T05:21:39.425Z,5.20
2019-04-20T05:24:22.947Z,15.27
2019-04-20T05:27:03.071Z,29.10
2019-04-20T05:29:18.076Z,10.00
2019-04-20T05:31:49.288Z,5.00
2019-04-20T05:34:37.277Z,4.50
2019-04-20T05:37:04.697Z,4.90
2019-04-20T05:39:50.443Z,4.70
2019-04-20T05:42:07.195Z,6.33
2019-04-20T05:44:41.739Z,4.60
2019-04-20T05:47:11.379Z,4.40
2019-04-20T05:49:34.515Z,4.57
2019-04-20T05:52:24.043Z,5.17
2019-04-20T05:54:39.132Z,4.77
2019-04-20T05:57:17.153Z,8.00
2019-04-20T05:59:47.195Z,7.10
2019-04-20T06:02:18.416Z,5.20
2019-04-20T06:04:54.367Z,4.60
2019-04-20T06:07:14.924Z,4.40
2019-04-20T06:09:47.722Z,3.93
2019-04-20T06:12:33.131Z,3.90
2019-04-20T06:15:13.029Z,3.73
2019-04-20T06:18:03.891Z,3.83
2019-04-20T06:23:34.608Z,4.27
2019-04-20T06:26:15.926Z,4.30
2019-04-20T06:28:28.377Z,4.13
2019-04-20T06:30:52.703Z,3.43
2019-04-20T06:34:01.379Z,3.90
2019-04-20T06:36:23.427Z,3.47
2019-04-20T06:38:56.416Z,3.67
2019-04-20T06:41:39.618Z,3.50
2019-04-20T06:43:55.999Z,3.70
2019-04-20T06:46:22.265Z,3.90
2019-04-20T06:48:51.367Z,3.37
2019-04-20T06:51:22.338Z,3.80
2019-04-20T06:53:53.974Z,3.50
2019-04-20T06:56:35.400Z,3.07
2019-04-20T06:59:12.540Z,3.83
2019-04-20T07:01:46.775Z,3.50
2019-04-20T07:04:26.982Z,3.43
2019-04-20T07:06:59.274Z,2.70
2019-04-20T07:09:33.916Z,3.43
2019-04-20T07:11:37.417Z,3.33
2019-04-20T07:13:54.422Z,3.10
2019-04-20T07:16:40.883Z,3.23
2019-04-20T07:19:17.550Z,3.70
2019-04-20T07:22:21.657Z,3.10
2019-04-20T07:24:40.277Z,3.73
2019-04-20T07:27:06.839Z,3.30
2019-04-20T07:29:40.750Z,3.20
2019-04-20T07:32:02.401Z,3.50
2019-04-20T07:34:40.205Z,4.53
2019-04-20T07:37:40.768Z,3.33
2019-04-20T07:39:44.887Z,3.30
2019-04-20T07:42:16.753Z,3.43
2019-04-20T07:44:49.768Z,3.23
2019-04-20T07:47:24.190Z,3.00
2019-04-20T07:49:41.616Z,2.83
2019-04-20T07:51:53.921Z,2.90
2019-04-20T07:54:49.016Z,2.97
2019-04-20T07:57:10.230Z,2.90
2019-04-20T07:59:36.015Z,3.33
2019-04-20T08:02:40.827Z,3.77
2019-04-20T08:05:15.514Z,2.80
2019-04-20T08:07:45.135Z,3.37
2019-04-20T08:10:12.508Z,3.00
2019-04-20T08:13:06.750Z,3.50
2019-04-20T08:15:36.784Z,3.10
2019-04-20T08:18:13.602Z,3.23
2019-04-20T08:20:27.928Z,3.07
2019-04-20T08:22:58.643Z,3.20
2019-04-20T08:25:20.304Z,3.00
2019-04-20T08:27:57.175Z,3.13
2019-04-20T08:31:00.593Z,3.30
2019-04-20T08:33:34.858Z,3.53
2019-04-20T08:36:12.291Z,3.33
2019-04-20T08:41:07.308Z,2.77
2019-04-20T08:43:47.071Z,3.00
2019-04-20T08:46:11.807Z,2.97
2019-04-20T08:48:40.839Z,2.40
2019-04-20T08:51:12.100Z,3.00
2019-04-20T08:53:44.615Z,3.00
2019-04-20T08:56:08.103Z,2.73
2019-04-20T08:58:24.836Z,3.30
2019-04-20T09:00:58.791Z,2.40
2019-04-20T09:03:30.221Z,3.17
2019-04-20T09:06:04.651Z,2.97
2019-04-20T09:08:32.647Z,3.40
2019-04-20T09:11:14.307Z,2.83
2019-04-20T09:13:34.331Z,2.80
2019-04-20T09:15:57.900Z,3.17
2019-04-20T09:18:39.075Z,2.40
2019-04-20T09:21:08.514Z,2.70
2019-04-20T09:23:45.851Z,2.43
2019-04-20T09:26:25.157Z,2.37
2019-04-20T09:29:12.546Z,2.73
2019-04-20T09:31:51.938Z,2.73
2019-04-20T09:34:42.416Z,2.40
2019-04-20T09:37:38.475Z,2.43
2019-04-20T09:39:53.269Z,2.43
2019-04-20T09:42:41.827Z,2.43
2019-04-20T09:45:19.767Z,3.30
2019-04-20T09:47:47.897Z,2.10
2019-04-20T09:50:30.317Z,2.27
2019-04-20T09:52:57.675Z,2.43
2019-04-20T09:55:26.802Z,1.93
2019-04-20T09:58:01.361Z,2.70
2019-04-20T10:00:28.943Z,2.40
2019-04-20T10:02:46.362Z,2.70
2019-04-20T10:05:15.714Z,3.03
2019-04-20T10:07:48.379Z,2.27
2019-04-20T10:10:24.607Z,2.27
2019-04-20T10:12:45.780Z,2.93
2019-04-20T10:15:19.507Z,2.00
2019-04-20T10:17:45.695Z,2.80
2019-04-20T10:20:22.399Z,2.30
2019-04-20T10:22:44.792Z,2.70
2019-04-20T10:25:14.985Z,2.73
2019-04-20T10:27:45.417Z,2.43
2019-04-20T10:30:14.680Z,2.33
2019-04-20T10:32:45.701Z,2.50
2019-04-20T10:35:16.855Z,2.13
2019-04-20T10:37:49.710Z,2.20
2019-04-20T10:40:35.834Z,2.43
2019-04-20T10:42:50.032Z,3.17
2019-04-20T10:45:19.088Z,2.60
2019-04-20T10:47:47.997Z,2.70
2019-04-20T10:50:16.901Z,1.70
2019-04-20T10:52:45.858Z,2.73
2019-04-20T10:55:14.780Z,2.33
2019-04-20T10:57:43.870Z,2.27
2019-04-20T11:00:13.637Z,2.50
2019-04-20T11:02:45.506Z,1.70
2019-04-20T11:05:13.054Z,2.40
2019-04-20T11:07:42.174Z,2.07
2019-04-20T11:10:16.681Z,2.07
2019-04-20T11:12:42.234Z,2.00
2019-04-20T11:15:12.741Z,2.87
2019-04-20T11:17:41.763Z,2.23
2019-04-20T11:20:10.527Z,2.10
2019-04-20T11:22:40.175Z,2.10
2019-04-20T11:25:08.658Z,2.10
2019-04-20T11:27:38.369Z,1.93
2019-04-20T11:30:07.989Z,2.30
2019-04-20T11:32:37.971Z,2.00
2019-04-20T11:35:14.124Z,2.53
2019-04-20T11:37:37.658Z,2.03
2019-04-20T11:40:06.572Z,1.80
2019-04-20T11:42:35.401Z,2.40
2019-04-20T11:45:04.634Z,1.93
2019-04-20T11:47:33.680Z,2.30
2019-04-20T11:50:03.687Z,2.17
2019-04-20T11:52:38.279Z,2.80
2019-04-20T11:55:04.318Z,2.07
2019-04-20T11:57:33.497Z,2.03
2019-04-20T12:00:03.611Z,2.50
2019-04-20T12:02:42.522Z,2.17
2019-04-20T12:05:21.382Z,1.93
2019-04-20T12:07:51.625Z,1.80
2019-04-20T12:10:22.713Z,2.10
2019-04-20T12:12:55.115Z,2.20
2019-04-20T12:15:22.420Z,1.90
2019-04-20T12:17:51.538Z,1.90
2019-04-20T12:20:20.873Z,2.23
2019-04-20T12:22:50.452Z,2.13
2019-04-20T12:25:20.394Z,2.50
2019-04-20T12:27:55.074Z,2.13
2019-04-20T12:30:19.883Z,2.20
2019-04-20T12:32:53.527Z,2.40
2019-04-20T12:35:20.246Z,2.37
2019-04-20T12:37:49.302Z,2.00
2019-04-20T12:40:18.086Z,2.30
2019-04-20T12:42:46.851Z,2.40
2019-04-20T12:45:15.860Z,2.10
2019-04-20T12:47:47.009Z,2.27
2019-04-20T12:50:15.137Z,2.43
2019-04-20T12:52:44.218Z,2.23
2019-04-20T12:55:14.649Z,2.30
2019-04-20T12:57:44.566Z,2.80
2019-04-20T13:00:13.575Z,2.47
2019-04-20T13:02:43.254Z,2.17
2019-04-20T13:05:13.387Z,2.23
2019-04-20T13:07:46.351Z,2.50
2019-04-20T13:10:13.681Z,2.53
2019-04-20T13:12:56.407Z,2.27
2019-04-20T13:15:30.407Z,2.83
2019-04-20T13:18:01.107Z,2.60
2019-04-20T13:20:30.086Z,2.30
2019-04-20T13:23:02.085Z,2.60
2019-04-20T13:25:30.562Z,2.77
2019-04-20T13:28:00.943Z,2.10
2019-04-20T13:30:30.107Z,2.73
2019-04-20T13:32:59.433Z,2.50
2019-04-20T13:35:28.160Z,2.80
2019-04-20T13:37:58.191Z,3.10
2019-04-20T13:40:27.982Z,2.80
2019-04-20T13:42:56.884Z,2.83
2019-04-20T13:45:26.677Z,2.90
2019-04-20T13:47:55.465Z,2.40
2019-04-20T13:50:24.183Z,2.80
2019-04-20T13:52:53.045Z,2.70
2019-04-20T13:55:24.864Z,2.67
2019-04-20T13:57:57.951Z,2.20
2019-04-20T14:00:42.900Z,2.70
2019-04-20T14:03:11.654Z,2.23
2019-04-20T14:05:40.549Z,2.30
2019-04-20T14:08:09.600Z,2.30
2019-04-20T14:10:39.711Z,2.67
2019-04-20T14:13:14.510Z,2.40
2019-04-20T14:15:38.718Z,2.67
2019-04-20T14:18:07.508Z,2.77
2019-04-20T14:20:36.322Z,2.67
2019-04-20T14:23:05.350Z,2.77
2019-04-20T14:25:34.247Z,2.57
2019-04-20T14:28:02.994Z,2.80
2019-04-20T14:30:32.994Z,2.43
2019-04-20T14:33:01.454Z,2.50
2019-04-20T14:35:30.204Z,2.30
2019-04-20T14:37:59.666Z,2.80
2019-04-20T14:40:28.475Z,2.67
2019-04-20T14:42:58.870Z,2.43
2019-04-20T14:45:28.856Z,2.77
2019-04-20T14:47:57.790Z,2.80
2019-04-20T14:50:27.596Z,3.10
2019-04-20T14:52:57.588Z,2.63
2019-04-20T14:55:26.476Z,3.10
2019-04-20T14:57:57.388Z,2.87
2019-04-20T15:00:52.665Z,3.07
2019-04-20T15:03:50.991Z,2.43
2019-04-20T15:06:17.856Z,3.67
2019-04-20T15:08:46.681Z,2.50
2019-04-20T15:11:16.666Z,3.27
2019-04-20T15:13:46.748Z,2.97
2019-04-20T15:16:16.843Z,3.30
2019-04-20T15:18:51.813Z,2.53
2019-04-20T15:21:21.705Z,3.17
2019-04-20T15:23:51.249Z,2.47
2019-04-20T15:26:20.445Z,3.17
2019-04-20T15:28:50.412Z,3.07
2019-04-20T15:31:20.416Z,3.13
2019-04-20T15:33:49.297Z,3.30
2019-04-20T15:36:20.129Z,2.53
2019-04-20T15:38:49.375Z,3.10
2019-04-20T15:41:18.637Z,3.63
2019-04-20T15:43:47.169Z,2.90
2019-04-20T15:46:17.224Z,3.50
2019-04-20T15:48:46.270Z,2.73
2019-04-20T15:51:17.144Z,2.87
2019-04-20T15:53:47.251Z,3.50
2019-04-20T15:56:16.596Z,3.00
2019-04-20T15:58:46.146Z,2.70
2019-04-20T16:01:16.366Z,3.27
2019-04-20T16:03:51.120Z,2.63
2019-04-20T16:06:21.223Z,3.17
2019-04-20T16:08:54.348Z,3.07
2019-04-20T16:11:23.279Z,2.70
2019-04-20T16:13:55.397Z,3.00
2019-04-20T16:16:23.781Z,2.73
2019-04-20T16:18:52.876Z,2.90
2019-04-20T16:21:24.942Z,3.40
2019-04-20T16:23:58.953Z,3.67
2019-04-20T16:26:33.418Z,3.20
2019-04-20T16:29:03.723Z,3.10
2019-04-20T16:31:32.787Z,2.87
2019-04-20T16:34:01.733Z,3.60
2019-04-20T16:36:30.659Z,2.97
2019-04-20T16:38:59.547Z,3.67
2019-04-20T16:41:28.474Z,2.77
2019-04-20T16:43:57.506Z,3.63
2019-04-20T16:46:26.317Z,3.50
2019-04-20T16:48:55.065Z,3.30
2019-04-20T16:51:24.958Z,3.40
2019-04-20T16:53:54.063Z,3.27
2019-04-20T16:56:22.839Z,3.70
2019-04-20T16:58:55.958Z,3.40
2019-04-20T17:01:23.504Z,3.80
2019-04-20T17:04:02.099Z,3.47
2019-04-20T17:06:24.224Z,3.60
2019-04-20T17:08:53.113Z,3.80
2019-04-20T17:11:21.991Z,4.27
2019-04-20T17:13:54.733Z,3.73
2019-04-20T17:16:21.886Z,3.97
2019-04-20T17:18:51.854Z,3.70
2019-04-20T17:21:25.036Z,3.77
2019-04-20T17:23:51.710Z,4.37
2019-04-20T17:26:46.987Z,3.67
2019-04-20T17:29:20.110Z,4.37
2019-04-20T17:31:58.391Z,4.23
2019-04-20T17:34:44.383Z,4.50
2019-04-20T17:36:57.718Z,4.40
2019-04-20T17:39:37.115Z,4.57
2019-04-20T17:42:12.855Z,3.97
2019-04-20T17:44:42.614Z,4.57
2019-04-20T17:47:13.525Z,4.47
2019-04-20T17:49:41.409Z,4.17
2019-04-20T17:52:26.458Z,4.47
2019-04-20T17:54:37.634Z,4.77
2019-04-20T17:57:09.146Z,4.20
2019-04-20T17:59:40.115Z,4.50
2019-04-20T18:02:48.659Z,4.20
2019-04-20T18:05:39.515Z,4.53
2019-04-20T18:08:16.048Z,3.83
2019-04-20T18:10:38.177Z,3.83
2019-04-20T18:12:56.533Z,3.67
2019-04-20T18:15:40.780Z,4.17
2019-04-20T18:18:32.201Z,4.90
2019-04-20T18:21:03.180Z,3.60
2019-04-20T18:23:37.993Z,3.63
2019-04-20T18:26:22.630Z,3.23
2019-04-20T18:28:59.006Z,4.10
2019-04-20T18:31:35.552Z,4.30
2019-04-20T18:34:14.357Z,4.13
2019-04-20T18:36:43.922Z,3.63
2019-04-20T18:39:13.621Z,3.83
2019-04-20T18:41:48.365Z,4.00
2019-04-20T18:44:12.934Z,4.17
2019-04-20T18:47:06.640Z,4.07
2019-04-20T18:49:27.143Z,4.90
2019-04-20T18:51:43.922Z,4.60
2019-04-20T18:54:19.048Z,6.03
2019-04-20T18:56:48.925Z,5.50
2019-04-20T18:59:14.532Z,4.50
2019-04-20T19:01:45.462Z,4.37
2019-04-20T19:04:14.186Z,5.00
2019-04-20T19:06:43.739Z,4.70
2019-04-20T19:09:16.798Z,4.10
2019-04-20T19:11:53.435Z,3.90
2019-04-20T19:14:38.045Z,4.53
2019-04-20T19:17:26.422Z,4.57
2019-04-20T19:19:55.224Z,4.10
2019-04-20T19:22:23.938Z,4.37
2019-04-20T19:24:53.952Z,5.73
2019-04-20T19:27:30.160Z,3.50
2019-04-20T19:30:07.340Z,3.83
2019-04-20T19:32:39.520Z,3.87
2019-04-20T19:35:01.632Z,3.53
2019-04-20T19:37:31.168Z,3.43
2019-04-20T19:40:06.797Z,3.67
2019-04-20T19:42:39.209Z,3.50
2019-04-20T19:45:17.496Z,4.43
2019-04-20T19:47:42.863Z,3.60
2019-04-20T19:50:28.547Z,3.57
2019-04-20T19:52:55.819Z,3.70
2019-04-20T19:55:14.448Z,3.40
2019-04-20T19:57:45.307Z,3.47
2019-04-20T20:00:01.540Z,3.97
2019-04-20T20:02:31.757Z,3.70
2019-04-20T20:05:06.821Z,3.80
2019-04-20T20:07:38.758Z,3.17
2019-04-20T20:10:05.811Z,3.43
2019-04-20T20:12:33.689Z,3.80
2019-04-20T20:15:06.972Z,3.70
2019-04-20T20:17:54.003Z,3.93
2019-04-20T20:20:28.738Z,5.20
2019-04-20T20:22:42.492Z,7.63
2019-04-20T20:25:05.295Z,9.77
2019-04-20T20:27:45.254Z,13.97
2019-04-20T20:30:15.139Z,9.90
2019-04-20T20:32:56.430Z,6.43
2019-04-20T20:35:15.347Z,5.60
2019-04-20T20:37:43.709Z,6.23
2019-04-20T20:40:17.750Z,6.23
2019-04-20T20:42:52.720Z,5.80
2019-04-20T20:45:19.950Z,5.47
2019-04-20T20:48:00.445Z,5.60
2019-04-20T20:50:33.192Z,4.60
2019-04-20T20:52:55.911Z,4.93
2019-04-20T20:55:24.653Z,5.40
2019-04-20T20:57:49.522Z,5.73
2019-04-20T21:00:25.189Z,4.70
2019-04-20T21:02:50.866Z,4.50
2019-04-20T21:05:13.613Z,4.47
2019-04-20T21:07:42.796Z,4.60
2019-04-20T21:10:15.390Z,4.20
2019-04-20T21:12:46.517Z,4.57
2019-04-20T21:15:17.174Z,4.40
2019-04-20T21:18:08.392Z,4.47
2019-04-20T21:20:29.217Z,4.97
2019-04-20T21:22:58.730Z,4.60
2019-04-20T21:25:26.397Z,5.60
2019-04-20T21:27:53.069Z,5.20
2019-04-20T21:30:28.229Z,4.73
2019-04-20T21:32:56.278Z,5.97
2019-04-20T21:35:23.883Z,4.93
2019-04-20T21:38:00.481Z,5.07
2019-04-20T21:40:30.202Z,4.80
2019-04-20T21:42:59.224Z,4.80
2019-04-20T21:45:30.339Z,5.43
2019-04-20T21:47:56.456Z,4.20
2019-04-20T21:50:44.114Z,5.20
2019-04-20T21:53:06.029Z,4.33
2019-04-20T21:55:26.192Z,4.63
2019-04-20T21:57:58.897Z,5.20
2019-04-20T22:00:47.705Z,4.60
2019-04-20T22:03:15.534Z,4.50
2019-04-20T22:05:46.494Z,5.47
2019-04-20T22:08:17.486Z,5.10
2019-04-20T22:10:47.069Z,5.27
2019-04-20T22:13:19.680Z,4.73
2019-04-20T22:15:54.522Z,4.57
2019-04-20T22:18:21.243Z,3.73
2019-04-20T22:20:57.871Z,5.00
2019-04-20T22:23:36.558Z,4.73
2019-04-20T22:26:05.116Z,6.87
2019-04-20T22:28:20.262Z,5.10
2019-04-20T22:30:50.376Z,4.60
2019-04-20T22:33:29.871Z,4.20
2019-04-20T22:36:00.892Z,4.30
2019-04-20T22:38:37.623Z,4.43
2019-04-20T22:41:11.980Z,4.60
2019-04-20T22:43:38.262Z,4.20
2019-04-20T22:46:05.546Z,5.33
2019-04-20T22:48:40.460Z,5.33
2019-04-20T22:51:19.563Z,6.10
2019-04-20T22:53:48.319Z,4.83
2019-04-20T22:56:25.674Z,4.53
2019-04-20T22:58:48.834Z,5.00
2019-04-20T23:01:20.001Z,4.37
2019-04-20T23:03:38.874Z,3.93
2019-04-20T23:06:09.010Z,5.30
2019-04-20T23:08:38.275Z,4.93
2019-04-20T23:11:16.090Z,4.93
2019-04-20T23:13:41.929Z,5.53
2019-04-20T23:16:09.263Z,4.90
2019-04-20T23:18:38.248Z,5.13
2019-04-20T23:21:11.870Z,4.53
2019-04-20T23:23:37.529Z,5.17
2019-04-20T23:26:07.244Z,5.60
2019-04-20T23:28:40.093Z,6.87
2019-04-20T23:31:13.350Z,5.40
2019-04-20T23:33:38.072Z,4.83
2019-04-20T23:36:08.488Z,5.40
2019-04-20T23:38:38.918Z,5.67
2019-04-20T23:41:08.060Z,5.50
2019-04-20T23:43:41.331Z,5.10
2019-04-20T23:46:33.271Z,4.80
2019-04-20T23:49:25.447Z,4.83
2019-04-20T23:52:09.480Z,5.67
2019-04-20T23:54:25.739Z,6.10
2019-04-20T23:56:53.464Z,7.50
2019-04-20T23:59:28.936Z,5.50
